createdAt,value
2019-06-27T00:00:57.064Z,95965.19
2019-06-27T00:03:26.254Z,95967.05
2019-06-27T00:05:55.200Z,95965.23
2019-06-27T00:08:24.093Z,95971.28
2019-06-27T00:10:53.399Z,95968.98
2019-06-27T00:13:22.356Z,95976.58
2019-06-27T00:15:51.241Z,95969.47
2019-06-27T00:18:20.216Z,95969.61
2019-06-27T00:20:49.104Z,95971.02
2019-06-27T00:23:18.074Z,95978.77
2019-06-27T00:25:46.992Z,95976.72
2019-06-27T00:28:15.968Z,95967.17
2019-06-27T00:30:44.923Z,95972.01
2019-06-27T00:33:13.892Z,95970.85
2019-06-27T00:35:42.954Z,95971.28
2019-06-27T00:38:11.985Z,95963.48
2019-06-27T00:40:40.950Z,95964.23
2019-06-27T00:43:09.917Z,95964.79
2019-06-27T00:45:38.785Z,95960.35
2019-06-27T00:48:07.673Z,95963.98
2019-06-27T00:50:36.638Z,95967.98
2019-06-27T00:53:05.742Z,95961.02
2019-06-27T00:55:34.640Z,95966.00
2019-06-27T00:58:03.665Z,95963.16
2019-06-27T01:00:32.579Z,95965.32
2019-06-27T01:03:01.443Z,95973.37
2019-06-27T01:05:30.307Z,95977.52
2019-06-27T01:07:59.425Z,95973.95
2019-06-27T01:10:28.397Z,95970.11
2019-06-27T01:12:57.389Z,95974.06
2019-06-27T01:15:26.402Z,95967.22
2019-06-27T01:17:55.301Z,95975.03
2019-06-27T01:20:24.343Z,95973.50
2019-06-27T01:22:53.199Z,95976.33
2019-06-27T01:25:22.221Z,95978.61
2019-06-27T01:27:51.111Z,95978.50
2019-06-27T01:30:20.137Z,95975.41
2019-06-27T01:32:49.016Z,95980.11
2019-06-27T01:35:17.983Z,95983.34
2019-06-27T01:37:46.997Z,95985.69
2019-06-27T01:40:17.310Z,95974.91
2019-06-27T01:42:46.306Z,95974.88
2019-06-27T01:45:24.063Z,95973.28
2019-06-27T01:47:53.003Z,95972.05
2019-06-27T01:50:21.974Z,95974.50
2019-06-27T01:52:50.851Z,95967.56
2019-06-27T01:55:20.021Z,95959.81
2019-06-27T01:57:49.244Z,95962.16
2019-06-27T02:00:18.548Z,95964.47
2019-06-27T02:02:47.533Z,95973.72
2019-06-27T02:05:16.624Z,95974.55
2019-06-27T02:07:45.589Z,95965.89
2019-06-27T02:10:14.638Z,95971.11
2019-06-27T02:12:43.611Z,95971.04
2019-06-27T02:15:12.771Z,95973.66
2019-06-27T02:17:41.722Z,95975.23
2019-06-27T02:20:11.842Z,95965.98
2019-06-27T02:22:40.837Z,95964.48
2019-06-27T02:25:10.812Z,95968.70
2019-06-27T02:27:39.754Z,95965.89
2019-06-27T02:30:09.141Z,95959.93
2019-06-27T02:32:38.293Z,95965.34
2019-06-27T02:35:07.549Z,95969.09
2019-06-27T02:37:36.645Z,95961.98
2019-06-27T02:40:06.057Z,95972.37
2019-06-27T02:42:34.917Z,95967.70
2019-06-27T02:45:05.016Z,95981.47
2019-06-27T02:50:01.907Z,95977.91
2019-06-27T02:52:30.890Z,95974.55
2019-06-27T02:54:59.793Z,95984.60
2019-06-27T02:57:28.806Z,95984.39
2019-06-27T02:59:57.881Z,95978.09
2019-06-27T03:02:27.133Z,95968.70
2019-06-27T03:04:56.185Z,95976.00
2019-06-27T03:07:25.257Z,95974.81
2019-06-27T03:09:56.219Z,95970.89
2019-06-27T03:12:25.157Z,95965.57
2019-06-27T03:14:54.171Z,95969.87
2019-06-27T03:17:23.144Z,95967.71
2019-06-27T03:19:52.262Z,95976.35
2019-06-27T03:22:21.537Z,95969.28
2019-06-27T03:24:50.764Z,95975.04
2019-06-27T03:27:19.734Z,95972.83
2019-06-27T03:29:48.821Z,95974.66
2019-06-27T03:32:17.974Z,95976.97
2019-06-27T03:34:50.023Z,95972.44
2019-06-27T03:37:19.006Z,95977.44
2019-06-27T03:39:48.085Z,95972.66
2019-06-27T03:42:17.288Z,95977.97
2019-06-27T03:44:46.359Z,95978.48
2019-06-27T03:47:15.522Z,95981.45
2019-06-27T03:49:44.647Z,95976.00
2019-06-27T03:52:14.126Z,95988.27
2019-06-27T03:54:43.223Z,95994.08
2019-06-27T03:57:12.216Z,95995.94
2019-06-27T03:59:41.512Z,95995.59
2019-06-27T04:02:10.913Z,95996.91
2019-06-27T04:04:39.957Z,95994.19
2019-06-27T04:07:08.909Z,95986.71
2019-06-27T04:09:37.931Z,95992.77
2019-06-27T04:12:07.181Z,95995.47
2019-06-27T04:14:36.305Z,95995.53
2019-06-27T04:17:05.492Z,95993.96
2019-06-27T04:19:34.447Z,95990.77
2019-06-27T04:22:03.501Z,96002.41
2019-06-27T04:24:32.541Z,96003.08
2019-06-27T04:27:01.679Z,96002.80
2019-06-27T04:29:34.158Z,96001.74
2019-06-27T04:32:01.615Z,96008.52
2019-06-27T04:34:30.710Z,96012.36
2019-06-27T04:36:59.891Z,96003.70
2019-06-27T04:39:28.980Z,96006.25
2019-06-27T04:41:58.004Z,96012.43
2019-06-27T04:44:28.516Z,96008.66
2019-06-27T04:46:57.508Z,96012.56
2019-06-27T04:49:26.689Z,96015.25
2019-06-27T04:51:58.998Z,96007.56
2019-06-27T04:54:28.331Z,96017.09
2019-06-27T04:56:59.147Z,96015.13
2019-06-27T04:59:28.096Z,96017.05
2019-06-27T05:01:57.505Z,96028.28
2019-06-27T05:04:26.714Z,96021.91
2019-06-27T05:06:56.120Z,96021.47
2019-06-27T05:09:25.397Z,96017.83
2019-06-27T05:11:54.413Z,96008.03
2019-06-27T05:14:23.299Z,96014.93
2019-06-27T05:16:55.661Z,96003.95
2019-06-27T05:19:24.624Z,96008.79
2019-06-27T05:21:53.726Z,96011.40
2019-06-27T05:24:22.953Z,96017.55
2019-06-27T05:26:52.095Z,96008.97
2019-06-27T05:29:21.370Z,96023.37
2019-06-27T05:31:52.395Z,96032.16
2019-06-27T05:34:21.530Z,96030.73
2019-06-27T05:36:50.844Z,96039.00
2019-06-27T05:39:25.110Z,96045.59
2019-06-27T05:41:57.767Z,96049.20
2019-06-27T05:44:27.213Z,96050.73
2019-06-27T05:46:56.079Z,96047.06
2019-06-27T05:49:26.325Z,96045.36
2019-06-27T05:51:57.804Z,96039.63
2019-06-27T05:54:27.056Z,96034.03
2019-06-27T05:56:56.221Z,96038.56
2019-06-27T05:59:25.285Z,96034.25
2019-06-27T06:01:54.308Z,96035.00
2019-06-27T06:04:24.173Z,96036.84
2019-06-27T06:06:55.171Z,96034.66
2019-06-27T06:09:24.271Z,96030.55
2019-06-27T06:11:56.484Z,96037.51
2019-06-27T06:14:25.635Z,96044.57
2019-06-27T06:16:55.170Z,96040.68
2019-06-27T06:19:24.221Z,96046.97
2019-06-27T06:21:53.278Z,96041.09
2019-06-27T06:24:22.335Z,96035.58
2019-06-27T06:26:51.445Z,96037.94
2019-06-27T06:29:29.567Z,96038.58
2019-06-27T06:31:58.586Z,96032.29
2019-06-27T06:34:27.799Z,96039.87
2019-06-27T06:36:56.835Z,96040.55
2019-06-27T06:39:25.909Z,96037.23
2019-06-27T06:41:58.474Z,96041.50
2019-06-27T06:44:37.701Z,96051.05
2019-06-27T06:47:06.824Z,96050.84
2019-06-27T06:50:11.840Z,96058.16
2019-06-27T06:52:47.912Z,96049.84
2019-06-27T06:55:16.986Z,96055.70
2019-06-27T06:57:47.135Z,96060.52
2019-06-27T07:00:17.257Z,96063.86
2019-06-27T07:02:49.447Z,96064.67
2019-06-27T07:05:18.895Z,96063.38
2019-06-27T07:07:51.808Z,96064.27
2019-06-27T07:10:20.957Z,96070.27
2019-06-27T07:12:50.306Z,96069.53
2019-06-27T07:15:21.521Z,96073.70
2019-06-27T07:17:50.633Z,96079.69
2019-06-27T07:20:22.667Z,96078.72
2019-06-27T07:22:51.656Z,96082.81
2019-06-27T07:25:21.827Z,96081.46
2019-06-27T07:27:51.169Z,96079.31
2019-06-27T07:30:25.230Z,96078.77
2019-06-27T07:32:54.451Z,96084.28
2019-06-27T07:35:24.364Z,96075.20
2019-06-27T07:38:01.749Z,96076.84
2019-06-27T07:40:35.954Z,96076.06
2019-06-27T07:43:05.325Z,96078.56
2019-06-27T07:45:35.190Z,96081.28
2019-06-27T07:48:05.516Z,96084.34
2019-06-27T07:50:36.180Z,96081.17
2019-06-27T07:53:05.838Z,96083.39
2019-06-27T07:55:34.917Z,96081.13
2019-06-27T07:58:04.249Z,96079.48
2019-06-27T08:00:33.700Z,96074.84
2019-06-27T08:03:03.077Z,96076.27
2019-06-27T08:05:32.281Z,96073.17
2019-06-27T08:08:01.236Z,96078.41
2019-06-27T08:10:34.592Z,96074.06
2019-06-27T08:13:03.550Z,96075.27
2019-06-27T08:15:32.653Z,96075.26
2019-06-27T08:18:04.413Z,96070.55
2019-06-27T08:20:33.991Z,96076.66
2019-06-27T08:23:05.389Z,96073.69
2019-06-27T08:25:41.733Z,96073.69
2019-06-27T08:28:10.762Z,96076.85
2019-06-27T08:30:49.947Z,96075.33
2019-06-27T08:33:22.840Z,96072.72
2019-06-27T08:35:52.029Z,96072.72
2019-06-27T08:38:21.095Z,96073.86
2019-06-27T08:40:50.187Z,96068.15
2019-06-27T08:43:20.411Z,96067.20
2019-06-27T08:45:52.408Z,96073.52
2019-06-27T08:48:21.411Z,96073.44
2019-06-27T08:50:50.494Z,96062.44
2019-06-27T08:53:21.618Z,96061.55
2019-06-27T08:55:50.669Z,96063.46
2019-06-27T08:58:21.115Z,96062.69
2019-06-27T09:00:50.006Z,96065.19
2019-06-27T09:03:19.293Z,96069.39
2019-06-27T09:05:49.340Z,96075.77
2019-06-27T09:08:18.486Z,96074.75
2019-06-27T09:10:53.641Z,96076.44
2019-06-27T09:13:22.745Z,96069.59
2019-06-27T09:15:51.776Z,96072.05
2019-06-27T09:18:20.976Z,96071.95
2019-06-27T09:20:49.997Z,96068.81
2019-06-27T09:23:19.138Z,96066.64
2019-06-27T09:25:49.091Z,96066.34
2019-06-27T09:28:18.340Z,96060.39
2019-06-27T09:30:47.546Z,96063.55
2019-06-27T09:33:16.566Z,96062.14
2019-06-27T09:35:49.008Z,96064.41
2019-06-27T09:38:18.098Z,96063.88
2019-06-27T09:40:47.111Z,96067.39
2019-06-27T09:43:16.117Z,96061.14
2019-06-27T09:45:45.194Z,96058.09
2019-06-27T09:48:14.181Z,96057.23
2019-06-27T09:50:46.381Z,96066.70
2019-06-27T09:53:18.560Z,96056.46
2019-06-27T09:55:51.498Z,96065.39
2019-06-27T09:58:22.234Z,96068.24
2019-06-27T10:00:54.900Z,96064.22
2019-06-27T10:03:25.283Z,96055.33
2019-06-27T10:05:57.432Z,96058.43
2019-06-27T10:08:27.228Z,96055.90
2019-06-27T10:10:57.064Z,96057.59
2019-06-27T10:13:27.381Z,96054.78
2019-06-27T10:15:58.071Z,96056.23
2019-06-27T10:18:27.167Z,96059.86
2019-06-27T10:21:27.191Z,96052.13
2019-06-27T10:23:56.608Z,96060.27
2019-06-27T10:26:25.665Z,96062.77
2019-06-27T10:28:58.510Z,96064.59
2019-06-27T10:31:30.067Z,96059.34
2019-06-27T10:34:01.012Z,96060.70
2019-06-27T10:36:31.724Z,96059.87
2019-06-27T10:39:17.366Z,96066.14
2019-06-27T10:41:49.376Z,96066.52
2019-06-27T10:44:19.569Z,96063.55
2019-06-27T10:46:53.224Z,96062.03
2019-06-27T10:49:28.162Z,96060.56
2019-06-27T10:51:57.725Z,96062.05
2019-06-27T10:55:03.225Z,96060.48
2019-06-27T10:57:37.908Z,96057.05
2019-06-27T11:00:14.554Z,96053.73
2019-06-27T11:02:48.821Z,96051.19
2019-06-27T11:05:21.805Z,96050.55
2019-06-27T11:07:56.911Z,96047.07
2019-06-27T11:10:26.411Z,96048.48
2019-06-27T11:13:09.416Z,96039.79
2019-06-27T11:15:40.164Z,96053.27
2019-06-27T11:18:10.901Z,96049.42
2019-06-27T11:20:49.884Z,96053.72
2019-06-27T11:23:25.960Z,96049.53
2019-06-27T11:25:55.092Z,96039.72
2019-06-27T11:28:24.834Z,96043.45
2019-06-27T11:30:56.933Z,96048.72
2019-06-27T11:33:32.421Z,96043.19
2019-06-27T11:35:57.068Z,96046.09
2019-06-27T11:38:30.108Z,96042.56
2019-06-27T11:41:04.344Z,96040.03
2019-06-27T11:43:33.926Z,96043.06
2019-06-27T11:46:03.198Z,96044.53
2019-06-27T11:48:33.761Z,96041.81
2019-06-27T11:54:03.745Z,96038.29
2019-06-27T11:56:40.114Z,96037.84
2019-06-27T11:59:09.559Z,96038.04
2019-06-27T12:01:43.201Z,96026.80
2019-06-27T12:04:22.204Z,96032.59
2019-06-27T12:06:58.066Z,96022.41
2019-06-27T12:09:31.797Z,96027.03
2019-06-27T12:12:09.465Z,96026.30
2019-06-27T12:14:41.634Z,96026.45
2019-06-27T12:17:13.623Z,96040.48
2019-06-27T12:19:53.082Z,96033.20
2019-06-27T12:22:36.557Z,96034.67
2019-06-27T12:25:11.159Z,96032.62
2019-06-27T12:27:43.005Z,96037.66
2019-06-27T12:30:15.468Z,96034.53
2019-06-27T12:32:51.695Z,96043.22
2019-06-27T12:35:16.645Z,96038.84
2019-06-27T12:37:48.095Z,96041.22
2019-06-27T12:40:18.236Z,96038.21
2019-06-27T12:42:48.457Z,96041.43
2019-06-27T12:45:19.401Z,96030.42
2019-06-27T12:47:48.609Z,96041.02
2019-06-27T12:50:19.041Z,96032.97
2019-06-27T12:52:50.952Z,96035.00
2019-06-27T12:55:20.689Z,96032.98
2019-06-27T12:57:59.864Z,96024.85
2019-06-27T13:00:30.622Z,96023.03
2019-06-27T13:03:00.115Z,96028.48
2019-06-27T13:05:33.075Z,96017.92
2019-06-27T13:08:02.342Z,96014.59
2019-06-27T13:10:35.888Z,96020.00
2019-06-27T13:13:05.556Z,96019.14
2019-06-27T13:15:35.743Z,96010.88
2019-06-27T13:18:07.280Z,96011.83
2019-06-27T13:20:36.600Z,96010.73
2019-06-27T13:23:05.794Z,96009.08
2019-06-27T13:25:38.210Z,96002.28
2019-06-27T13:28:17.605Z,96008.41
2019-06-27T13:31:02.272Z,96005.33
2019-06-27T13:33:37.209Z,96009.28
2019-06-27T13:36:06.747Z,96003.72
2019-06-27T13:38:37.416Z,96001.75
2019-06-27T13:41:06.880Z,95993.09
2019-06-27T13:43:40.301Z,96001.19
2019-06-27T13:46:11.506Z,96001.83
2019-06-27T13:48:57.751Z,95995.05
2019-06-27T13:51:33.603Z,96003.25
2019-06-27T13:54:11.487Z,95998.26
2019-06-27T13:57:19.565Z,96000.56
2019-06-27T13:59:50.790Z,95993.16
2019-06-27T14:02:21.195Z,95991.58
2019-06-27T14:04:57.001Z,95993.30
2019-06-27T14:07:21.742Z,95991.19
2019-06-27T14:09:56.900Z,95987.69
2019-06-27T14:12:36.886Z,95989.45
2019-06-27T14:15:08.133Z,95985.86
2019-06-27T14:17:40.063Z,95980.67
2019-06-27T14:20:15.618Z,95978.89
2019-06-27T14:22:56.451Z,95981.36
2019-06-27T14:25:25.571Z,95980.08
2019-06-27T14:28:01.121Z,95985.61
2019-06-27T14:30:37.972Z,95980.39
2019-06-27T14:33:07.176Z,95976.80
2019-06-27T14:36:20.777Z,95976.92
2019-06-27T14:38:52.591Z,95976.69
2019-06-27T14:41:31.608Z,95972.33
2019-06-27T14:44:01.275Z,95973.17
2019-06-27T14:46:56.783Z,95972.41
2019-06-27T14:49:32.280Z,95965.56
2019-06-27T14:52:07.048Z,95965.87
2019-06-27T14:54:36.588Z,95967.89
2019-06-27T14:57:05.703Z,95964.28
2019-06-27T14:59:35.453Z,95965.26
2019-06-27T15:02:04.517Z,95960.84
2019-06-27T15:04:40.717Z,95959.76
2019-06-27T15:07:10.675Z,95958.45
2019-06-27T15:09:46.916Z,95961.82
2019-06-27T15:12:18.715Z,95951.44
2019-06-27T15:14:50.516Z,95956.29
2019-06-27T15:17:20.501Z,95961.97
2019-06-27T15:19:49.575Z,95955.58
2019-06-27T15:22:19.600Z,95948.34
2019-06-27T15:24:49.638Z,95952.55
2019-06-27T15:27:18.669Z,95949.98
2019-06-27T15:29:47.688Z,95954.45
2019-06-27T15:32:29.666Z,95964.37
2019-06-27T15:34:58.656Z,95965.72
2019-06-27T15:37:29.908Z,95953.19
2019-06-27T15:39:59.030Z,95951.44
2019-06-27T15:42:28.092Z,95951.84
2019-06-27T15:44:57.188Z,95951.22
2019-06-27T15:47:26.245Z,95949.68
2019-06-27T15:49:55.251Z,95938.55
2019-06-27T15:52:26.134Z,95945.30
2019-06-27T15:54:57.192Z,95941.47
2019-06-27T15:57:36.019Z,95943.11
2019-06-27T16:00:44.888Z,95936.75
2019-06-27T16:06:09.414Z,95932.08
2019-06-27T16:08:41.134Z,95936.73
2019-06-27T16:14:10.785Z,95932.94
2019-06-27T16:16:41.733Z,95932.30
2019-06-27T16:19:19.560Z,95932.14
2019-06-27T16:21:49.093Z,95930.86
2019-06-27T16:24:19.428Z,95924.58
2019-06-27T16:26:48.559Z,95927.33
2019-06-27T16:29:17.566Z,95929.81
2019-06-27T16:31:46.580Z,95925.25
2019-06-27T16:34:15.507Z,95931.44
2019-06-27T16:36:46.773Z,95936.19
2019-06-27T16:39:17.042Z,95931.81
2019-06-27T16:41:46.425Z,95923.84
2019-06-27T16:44:15.649Z,95925.61
2019-06-27T16:46:44.931Z,95927.89
2019-06-27T16:49:14.150Z,95929.43
2019-06-27T16:51:43.567Z,95922.80
2019-06-27T16:54:13.626Z,95932.45
2019-06-27T16:56:42.669Z,95930.02
2019-06-27T16:59:12.955Z,95926.47
2019-06-27T17:01:42.629Z,95927.00
2019-06-27T17:04:11.793Z,95920.39
2019-06-27T17:06:47.110Z,95924.83
2019-06-27T17:09:17.637Z,95928.02
2019-06-27T17:11:46.861Z,95921.73
2019-06-27T17:14:22.886Z,95914.28
2019-06-27T17:16:52.319Z,95915.80
2019-06-27T17:19:24.413Z,95922.95
2019-06-27T17:22:01.667Z,95923.18
2019-06-27T17:24:30.816Z,95928.69
2019-06-27T17:27:03.459Z,95923.52
2019-06-27T17:29:35.625Z,95924.84
2019-06-27T17:32:06.461Z,95927.55
2019-06-27T17:35:08.860Z,95923.95
2019-06-27T17:37:42.433Z,95918.17
2019-06-27T17:40:13.191Z,95915.81
2019-06-27T17:42:44.573Z,95919.43
2019-06-27T17:45:16.476Z,95915.83
2019-06-27T17:47:50.815Z,95911.02
2019-06-27T17:50:23.012Z,95918.67
2019-06-27T17:52:57.873Z,95915.04
2019-06-27T17:55:27.946Z,95913.94
2019-06-27T17:57:57.403Z,95904.61
2019-06-27T18:00:43.714Z,95904.43
2019-06-27T18:03:20.750Z,95903.31
2019-06-27T18:05:53.688Z,95907.73
2019-06-27T18:08:35.152Z,95906.98
2019-06-27T18:11:08.640Z,95907.91
2019-06-27T18:13:41.402Z,95909.39
2019-06-27T18:16:13.505Z,95912.17
2019-06-27T18:18:42.797Z,95907.82
2019-06-27T18:21:11.905Z,95906.45
2019-06-27T18:23:43.711Z,95905.98
2019-06-27T18:26:14.616Z,95906.08
2019-06-27T18:28:45.343Z,95904.41
2019-06-27T18:31:20.622Z,95915.19
2019-06-27T18:33:50.024Z,95908.55
2019-06-27T18:36:19.454Z,95911.19
2019-06-27T18:38:48.653Z,95905.40
2019-06-27T18:41:21.576Z,95899.67
2019-06-27T18:43:50.867Z,95902.99
2019-06-27T18:46:19.931Z,95900.77
2019-06-27T18:48:51.888Z,95900.08
2019-06-27T18:51:19.872Z,95894.88
2019-06-27T18:53:49.326Z,95896.77
2019-06-27T18:56:20.931Z,95892.03
2019-06-27T18:58:51.446Z,95896.38
2019-06-27T19:01:20.417Z,95893.09
2019-06-27T19:03:49.926Z,95895.29
2019-06-27T19:06:20.383Z,95895.80
2019-06-27T19:08:49.795Z,95892.58
2019-06-27T19:11:18.888Z,95891.38
2019-06-27T19:13:58.351Z,95892.43
2019-06-27T19:16:27.380Z,95889.91
2019-06-27T19:18:59.587Z,95892.47
2019-06-27T19:21:53.367Z,95898.20
2019-06-27T19:24:33.439Z,95895.72
2019-06-27T19:27:02.619Z,95894.25
2019-06-27T19:29:31.648Z,95899.20
2019-06-27T19:32:01.884Z,95902.30
2019-06-27T19:34:31.299Z,95906.27
2019-06-27T19:37:00.163Z,95911.48
2019-06-27T19:39:29.174Z,95911.70
2019-06-27T19:41:58.437Z,95918.28
2019-06-27T19:44:27.519Z,95915.53
2019-06-27T19:46:56.556Z,95915.02
2019-06-27T19:49:33.101Z,95922.60
2019-06-27T19:52:02.355Z,95927.75
2019-06-27T19:54:39.014Z,95922.38
2019-06-27T19:57:08.326Z,95925.94
2019-06-27T19:59:41.762Z,95921.97
2019-06-27T20:02:11.377Z,95927.33
2019-06-27T20:04:45.737Z,95930.84
2019-06-27T20:07:14.871Z,95934.55
2019-06-27T20:09:43.979Z,95936.06
2019-06-27T20:12:13.120Z,95937.14
2019-06-27T20:14:42.113Z,95935.02
2019-06-27T20:17:11.113Z,95942.06
2019-06-27T20:19:40.235Z,95940.18
2019-06-27T20:22:09.264Z,95944.16
2019-06-27T20:24:38.265Z,95942.87
2019-06-27T20:27:07.359Z,95948.05
2019-06-27T20:29:36.596Z,95945.30
2019-06-27T20:32:05.786Z,95944.56
2019-06-27T20:34:43.205Z,95946.70
2019-06-27T20:37:12.288Z,95947.05
2019-06-27T20:39:41.304Z,95949.84
2019-06-27T20:42:10.377Z,95952.81
2019-06-27T20:44:39.601Z,95952.81
2019-06-27T20:47:09.092Z,95957.12
2019-06-27T20:49:42.078Z,95956.61
2019-06-27T20:52:11.083Z,95952.66
2019-06-27T20:54:39.913Z,95956.31
2019-06-27T20:57:08.939Z,95955.48
2019-06-27T20:59:38.947Z,95952.33
2019-06-27T21:02:09.066Z,95956.55
2019-06-27T21:04:40.579Z,95955.97
2019-06-27T21:07:10.099Z,95961.06
2019-06-27T21:09:39.106Z,95962.34
2019-06-27T21:12:16.642Z,95959.66
2019-06-27T21:14:47.611Z,95955.53
2019-06-27T21:17:16.705Z,95958.91
2019-06-27T21:19:45.634Z,95958.91
2019-06-27T21:22:14.546Z,95961.66
2019-06-27T21:24:43.517Z,95964.24
2019-06-27T21:27:22.795Z,95962.39
2019-06-27T21:29:51.903Z,95963.78
2019-06-27T21:32:31.715Z,95962.79
2019-06-27T21:35:00.618Z,95962.11
2019-06-27T21:37:30.573Z,95955.98
2019-06-27T21:40:01.395Z,95964.75
2019-06-27T21:42:31.465Z,95966.57
2019-06-27T21:45:02.609Z,95957.06
2019-06-27T21:47:33.375Z,95959.78
2019-06-27T21:50:03.095Z,95967.71
2019-06-27T21:52:32.861Z,95963.63
2019-06-27T21:55:02.573Z,95964.22
2019-06-27T21:57:55.280Z,95958.04
2019-06-27T22:00:36.040Z,95965.21
2019-06-27T22:03:08.731Z,95958.95
2019-06-27T22:05:41.054Z,95952.95
2019-06-27T22:08:11.021Z,95946.01
2019-06-27T22:10:40.431Z,95946.50
2019-06-27T22:13:09.766Z,95950.12
2019-06-27T22:15:39.596Z,95956.67
2019-06-27T22:18:09.431Z,95949.87
2019-06-27T22:20:39.775Z,95948.92
2019-06-27T22:23:10.505Z,95942.73
2019-06-27T22:25:43.557Z,95939.52
2019-06-27T22:28:14.397Z,95944.06
2019-06-27T22:30:43.750Z,95943.06
2019-06-27T22:33:13.909Z,95942.80
2019-06-27T22:35:44.196Z,95941.39
2019-06-27T22:38:31.998Z,95938.19
2019-06-27T22:41:19.421Z,95933.21
2019-06-27T22:44:06.594Z,95938.00
2019-06-27T22:46:54.628Z,95941.74
2019-06-27T22:49:25.315Z,95940.03
2019-06-27T22:52:13.385Z,95938.11
2019-06-27T22:54:44.721Z,95930.16
2019-06-27T22:57:13.734Z,95934.66
2019-06-27T22:59:42.701Z,95932.22
2019-06-27T23:02:11.582Z,95935.67
2019-06-27T23:04:40.722Z,95932.40
2019-06-27T23:09:55.717Z,95929.20
2019-06-27T23:12:11.196Z,95930.50
2019-06-27T23:14:40.156Z,95925.16
2019-06-27T23:17:09.122Z,95923.71
2019-06-27T23:19:38.000Z,95924.49
2019-06-27T23:22:06.933Z,95932.02
2019-06-27T23:24:39.813Z,95925.52
2019-06-27T23:27:08.825Z,95921.92
2019-06-27T23:29:37.752Z,95918.19
2019-06-27T23:32:06.733Z,95913.41
2019-06-27T23:34:35.699Z,95917.18
2019-06-27T23:37:04.999Z,95910.45
2019-06-27T23:39:33.955Z,95909.38
2019-06-27T23:42:02.949Z,95903.84
2019-06-27T23:44:31.785Z,95898.13
2019-06-27T23:47:00.767Z,95900.02
2019-06-27T23:49:29.634Z,95909.81
2019-06-27T23:51:58.607Z,95902.01
2019-06-27T23:54:34.591Z,95903.13
2019-06-27T23:57:03.789Z,95901.02
2019-06-27T23:59:32.761Z,95900.08
